createdAt,value
2022-10-18T00:00:41.919Z,0.00
2022-10-18T00:01:42.007Z,0.00
2022-10-18T00:02:41.967Z,0.00
2022-10-18T00:04:41.959Z,0.00
2022-10-18T00:05:41.975Z,0.00
2022-10-18T00:06:43.538Z,0.00
2022-10-18T00:07:42.002Z,0.00
2022-10-18T00:08:41.986Z,0.00
2022-10-18T00:09:41.986Z,0.00
2022-10-18T00:10:41.998Z,0.00
2022-10-18T00:11:42.080Z,0.00
2022-10-18T00:12:42.127Z,0.00
2022-10-18T00:13:42.066Z,0.00
2022-10-18T00:14:42.042Z,0.00
2022-10-18T00:15:42.109Z,0.00
2022-10-18T00:16:42.067Z,0.00
2022-10-18T00:17:42.097Z,0.00
2022-10-18T00:18:42.139Z,0.00
2022-10-18T00:19:42.105Z,0.00
2022-10-18T00:20:42.132Z,0.00
2022-10-18T00:21:42.225Z,0.00
2022-10-18T00:22:42.183Z,0.00
2022-10-18T00:23:42.241Z,0.00
2022-10-18T00:24:42.207Z,0.00
2022-10-18T00:25:42.229Z,0.00
2022-10-18T00:26:42.321Z,0.00
2022-10-18T00:27:42.293Z,0.00
2022-10-18T00:28:42.375Z,0.00
2022-10-18T00:29:42.326Z,0.00
2022-10-18T00:30:42.403Z,0.00
2022-10-18T00:31:42.387Z,0.00
2022-10-18T00:32:42.406Z,0.00
2022-10-18T00:33:42.414Z,0.00
2022-10-18T00:34:42.437Z,0.00
2022-10-18T00:35:42.471Z,0.00
2022-10-18T00:36:42.482Z,0.00
2022-10-18T00:37:42.506Z,0.00
2022-10-18T00:38:42.464Z,0.00
2022-10-18T00:39:42.607Z,0.00
2022-10-18T00:40:42.542Z,0.00
2022-10-18T00:41:42.506Z,0.00
2022-10-18T00:42:42.530Z,0.00
2022-10-18T00:43:42.562Z,0.00
2022-10-18T00:44:42.594Z,0.00
2022-10-18T00:45:42.591Z,0.00
2022-10-18T00:46:42.565Z,0.00
2022-10-18T00:47:42.632Z,0.00
2022-10-18T00:48:42.650Z,0.00
2022-10-18T00:49:42.635Z,0.00
2022-10-18T00:50:42.605Z,0.00
2022-10-18T00:51:42.632Z,0.00
2022-10-18T00:52:42.667Z,0.00
2022-10-18T00:53:42.706Z,0.00
2022-10-18T00:54:42.743Z,0.00
2022-10-18T00:55:42.719Z,0.00
2022-10-18T00:56:42.741Z,0.00
2022-10-18T00:57:42.815Z,0.00
2022-10-18T00:58:42.801Z,0.00
2022-10-18T00:59:42.840Z,0.00
2022-10-18T01:00:42.821Z,0.00
2022-10-18T01:01:42.964Z,0.00
2022-10-18T01:02:42.872Z,0.00
2022-10-18T01:03:42.930Z,0.00
2022-10-18T01:04:42.922Z,0.00
2022-10-18T01:05:42.878Z,0.00
2022-10-18T01:06:43.029Z,0.00
2022-10-18T01:07:42.934Z,0.00
2022-10-18T01:08:42.973Z,0.00
2022-10-18T01:09:42.956Z,0.00
2022-10-18T01:10:42.948Z,0.00
2022-10-18T01:11:42.935Z,0.00
2022-10-18T01:12:42.961Z,0.00
2022-10-18T01:13:42.942Z,0.00
2022-10-18T01:14:42.949Z,0.00
2022-10-18T01:15:42.975Z,0.00
2022-10-18T01:16:42.999Z,0.00
2022-10-18T01:17:43.035Z,0.00
2022-10-18T01:18:43.055Z,0.00
2022-10-18T01:19:43.127Z,0.00
2022-10-18T01:20:43.085Z,0.00
2022-10-18T01:21:43.106Z,0.00
2022-10-18T01:22:43.159Z,0.00
2022-10-18T01:23:43.175Z,0.00
2022-10-18T01:24:43.222Z,0.00
2022-10-18T01:25:43.220Z,0.00
2022-10-18T01:26:43.196Z,0.00
2022-10-18T01:27:43.229Z,0.00
2022-10-18T01:28:43.288Z,0.00
2022-10-18T01:29:43.260Z,0.00
2022-10-18T01:30:43.328Z,0.00
2022-10-18T01:31:43.298Z,0.00
2022-10-18T01:32:43.339Z,0.00
2022-10-18T01:33:43.369Z,0.00
2022-10-18T01:34:43.375Z,0.00
2022-10-18T01:35:43.443Z,0.00
2022-10-18T01:36:43.395Z,0.00
2022-10-18T01:37:43.425Z,0.00
2022-10-18T01:38:43.438Z,0.00
2022-10-18T01:39:43.464Z,0.00
2022-10-18T01:40:43.759Z,0.00
2022-10-18T01:41:43.516Z,0.00
2022-10-18T01:42:43.536Z,0.00
2022-10-18T01:43:43.555Z,0.00
2022-10-18T01:44:43.584Z,0.00
2022-10-18T01:45:43.661Z,0.00
2022-10-18T01:46:43.641Z,0.00
2022-10-18T01:47:43.821Z,0.00
2022-10-18T01:48:43.599Z,0.00
2022-10-18T01:49:43.628Z,0.00
2022-10-18T01:50:43.627Z,0.00
2022-10-18T01:51:43.640Z,0.00
2022-10-18T01:52:43.644Z,0.00
2022-10-18T01:53:43.625Z,0.00
2022-10-18T01:54:43.653Z,0.00
2022-10-18T01:55:43.724Z,0.00
2022-10-18T01:56:43.694Z,0.00
2022-10-18T01:57:43.668Z,0.00
2022-10-18T01:58:43.694Z,0.00
2022-10-18T01:59:43.730Z,0.00
2022-10-18T02:00:43.724Z,0.00
2022-10-18T02:01:43.697Z,0.00
2022-10-18T02:02:43.714Z,0.00
2022-10-18T02:03:43.747Z,0.00
2022-10-18T02:04:43.777Z,0.00
2022-10-18T02:05:43.758Z,0.00
2022-10-18T02:06:43.783Z,0.00
2022-10-18T02:07:44.947Z,0.00
2022-10-18T02:08:43.834Z,0.00
2022-10-18T02:09:43.876Z,0.00
2022-10-18T02:10:43.876Z,0.00
2022-10-18T02:11:43.891Z,0.00
2022-10-18T02:12:43.909Z,0.00
2022-10-18T02:13:43.906Z,0.00
2022-10-18T02:14:43.959Z,0.00
2022-10-18T02:15:43.934Z,0.00
2022-10-18T02:16:43.958Z,0.00
2022-10-18T02:17:44.011Z,0.00
2022-10-18T02:18:43.979Z,0.00
2022-10-18T02:19:44.006Z,0.00
2022-10-18T02:20:44.049Z,0.00
2022-10-18T02:21:44.067Z,0.00
2022-10-18T02:22:44.078Z,0.00
2022-10-18T02:23:44.142Z,0.00
2022-10-18T02:24:44.101Z,0.00
2022-10-18T02:25:44.121Z,0.00
2022-10-18T02:26:44.160Z,0.00
2022-10-18T02:27:44.156Z,0.00
2022-10-18T02:28:44.153Z,0.00
2022-10-18T02:29:44.253Z,0.00
2022-10-18T02:30:44.163Z,0.00
2022-10-18T02:31:44.232Z,0.00
2022-10-18T02:32:44.210Z,0.00
2022-10-18T02:33:44.233Z,0.00
2022-10-18T02:34:44.233Z,0.00
2022-10-18T02:35:44.207Z,0.00
2022-10-18T02:36:44.247Z,0.00
2022-10-18T02:37:44.240Z,0.00
2022-10-18T02:38:44.237Z,0.00
2022-10-18T02:39:44.275Z,0.00
2022-10-18T02:40:44.273Z,0.00
2022-10-18T02:41:44.305Z,0.00
2022-10-18T02:42:44.717Z,0.00
2022-10-18T02:43:44.324Z,0.00
2022-10-18T02:44:44.363Z,0.00
2022-10-18T02:45:44.389Z,0.00
2022-10-18T02:46:44.401Z,0.00
2022-10-18T02:47:44.448Z,0.00
2022-10-18T02:48:44.463Z,0.00
2022-10-18T02:49:44.487Z,0.00
2022-10-18T02:50:44.543Z,0.00
2022-10-18T02:51:44.499Z,0.00
2022-10-18T02:52:44.538Z,0.00
2022-10-18T02:53:44.524Z,0.00
2022-10-18T02:54:44.548Z,0.00
2022-10-18T02:55:44.609Z,0.00
2022-10-18T02:56:44.564Z,0.00
2022-10-18T02:57:44.612Z,0.00
2022-10-18T02:58:44.607Z,0.00
2022-10-18T02:59:44.591Z,0.00
2022-10-18T03:00:44.620Z,0.00
2022-10-18T03:01:44.688Z,0.00
2022-10-18T03:02:44.694Z,0.00
2022-10-18T03:03:44.682Z,0.00
2022-10-18T03:04:44.659Z,0.00
2022-10-18T03:05:44.682Z,0.00
2022-10-18T03:06:44.660Z,0.00
2022-10-18T03:07:44.678Z,0.00
2022-10-18T03:08:44.706Z,0.00
2022-10-18T03:09:44.743Z,0.00
2022-10-18T03:10:44.706Z,0.00
2022-10-18T03:11:44.776Z,0.00
2022-10-18T03:12:44.746Z,0.00
2022-10-18T03:13:44.788Z,139.00
2022-10-18T03:14:44.763Z,178.00
2022-10-18T03:15:44.803Z,188.00
2022-10-18T03:16:44.784Z,189.00
2022-10-18T03:17:44.829Z,190.00
2022-10-18T03:18:44.840Z,189.00
2022-10-18T03:19:44.856Z,189.00
2022-10-18T03:20:44.922Z,189.00
2022-10-18T03:21:44.880Z,189.00
2022-10-18T03:22:44.913Z,188.00
2022-10-18T03:23:44.916Z,188.00
2022-10-18T03:24:44.935Z,188.00
2022-10-18T03:25:46.430Z,187.00
2022-10-18T03:26:44.985Z,0.00
2022-10-18T03:27:45.012Z,0.00
2022-10-18T03:28:45.076Z,0.00
2022-10-18T03:29:44.965Z,0.00
2022-10-18T03:30:44.995Z,0.00
2022-10-18T03:31:45.013Z,0.00
2022-10-18T03:32:45.031Z,0.00
2022-10-18T03:33:45.047Z,0.00
2022-10-18T03:34:45.082Z,0.00
2022-10-18T03:35:45.104Z,0.00
2022-10-18T03:36:45.128Z,0.00
2022-10-18T03:37:45.155Z,0.00
2022-10-18T03:38:45.174Z,0.00
2022-10-18T03:39:45.227Z,0.00
2022-10-18T03:40:45.198Z,0.00
2022-10-18T03:41:45.193Z,0.00
2022-10-18T03:42:45.206Z,0.00
2022-10-18T03:43:45.226Z,0.00
2022-10-18T03:44:45.217Z,0.00
2022-10-18T03:45:45.252Z,0.00
2022-10-18T03:46:45.229Z,0.00
2022-10-18T03:47:45.260Z,0.00
2022-10-18T03:48:45.260Z,0.00
2022-10-18T03:49:45.285Z,0.00
2022-10-18T03:50:46.506Z,0.00
2022-10-18T03:51:45.393Z,0.00
2022-10-18T03:52:45.344Z,0.00
2022-10-18T03:53:45.361Z,0.00
2022-10-18T03:54:45.376Z,0.00
2022-10-18T03:55:45.378Z,0.00
2022-10-18T03:56:45.395Z,0.00
2022-10-18T03:57:45.407Z,0.00
2022-10-18T03:58:45.428Z,0.00
2022-10-18T03:59:45.473Z,0.00
2022-10-18T04:00:45.492Z,0.00
2022-10-18T04:01:45.578Z,0.00
2022-10-18T04:02:45.510Z,0.00
2022-10-18T04:03:45.538Z,0.00
2022-10-18T04:04:45.563Z,0.00
2022-10-18T04:05:45.603Z,0.00
2022-10-18T04:06:45.590Z,0.00
2022-10-18T04:07:45.587Z,0.00
2022-10-18T04:08:45.614Z,0.00
2022-10-18T04:09:45.636Z,0.00
2022-10-18T04:10:45.658Z,0.00
2022-10-18T04:11:45.658Z,0.00
2022-10-18T04:12:45.664Z,0.00
2022-10-18T04:13:45.684Z,0.00
2022-10-18T04:14:45.686Z,0.00
2022-10-18T04:15:45.714Z,0.00
2022-10-18T04:16:45.729Z,0.00
2022-10-18T04:17:45.727Z,0.00
2022-10-18T04:18:45.732Z,0.00
2022-10-18T04:19:45.732Z,0.00
2022-10-18T04:20:45.739Z,0.00
2022-10-18T04:21:45.781Z,0.00
2022-10-18T04:22:45.804Z,0.00
2022-10-18T04:23:45.800Z,0.00
2022-10-18T04:24:45.795Z,0.00
2022-10-18T04:25:45.816Z,0.00
2022-10-18T04:26:45.824Z,0.00
2022-10-18T04:27:45.869Z,0.00
2022-10-18T04:28:45.928Z,0.00
2022-10-18T04:29:45.843Z,0.00
2022-10-18T04:30:45.873Z,0.00
2022-10-18T04:31:45.890Z,0.00
2022-10-18T04:32:45.889Z,0.00
2022-10-18T04:33:45.927Z,0.00
2022-10-18T04:34:45.969Z,0.00
2022-10-18T04:35:45.967Z,0.00
2022-10-18T04:36:45.978Z,0.00
2022-10-18T04:37:45.992Z,0.00
2022-10-18T04:38:45.983Z,0.00
2022-10-18T04:39:48.602Z,0.00
2022-10-18T04:40:46.003Z,0.00
2022-10-18T04:41:46.010Z,0.00
2022-10-18T04:42:46.035Z,0.00
2022-10-18T04:44:46.061Z,0.00
2022-10-18T04:45:46.118Z,0.00
2022-10-18T04:46:46.091Z,0.00
2022-10-18T04:47:46.110Z,0.00
2022-10-18T04:48:46.114Z,0.00
2022-10-18T04:49:46.126Z,0.00
2022-10-18T04:50:46.153Z,0.00
2022-10-18T04:51:46.155Z,0.00
2022-10-18T04:52:46.214Z,0.00
2022-10-18T04:53:46.191Z,0.00
2022-10-18T04:54:46.228Z,0.00
2022-10-18T04:55:46.249Z,0.00
2022-10-18T04:56:46.277Z,0.00
2022-10-18T04:57:46.295Z,0.00
2022-10-18T04:58:46.322Z,0.00
2022-10-18T04:59:46.346Z,0.00
2022-10-18T05:02:12.262Z,0.00
2022-10-18T05:03:12.257Z,0.00
2022-10-18T05:04:12.281Z,0.00
2022-10-18T05:05:14.066Z,0.00
2022-10-18T05:06:12.315Z,0.00
2022-10-18T05:07:12.314Z,0.00
2022-10-18T05:08:12.294Z,0.00
2022-10-18T05:09:12.324Z,0.00
2022-10-18T05:10:12.319Z,0.00
2022-10-18T05:11:12.329Z,0.00
2022-10-18T05:12:12.329Z,0.00
2022-10-18T05:13:12.345Z,0.00
2022-10-18T05:14:12.398Z,0.00
2022-10-18T05:15:12.359Z,0.00
2022-10-18T05:16:12.382Z,0.00
2022-10-18T05:17:12.384Z,0.00
2022-10-18T05:18:12.477Z,0.00
2022-10-18T05:19:12.423Z,0.00
2022-10-18T05:20:12.438Z,0.00
2022-10-18T05:21:12.452Z,0.00
2022-10-18T05:22:12.480Z,0.00
2022-10-18T05:23:12.490Z,1.00
2022-10-18T05:24:12.547Z,1.00
2022-10-18T05:25:12.523Z,0.00
2022-10-18T05:26:12.541Z,1.00
2022-10-18T05:27:12.547Z,1.00
2022-10-18T05:28:41.273Z,1.00
2022-10-18T05:29:12.745Z,1.00
2022-10-18T05:30:12.674Z,1.00
2022-10-18T05:31:12.617Z,2.00
2022-10-18T05:32:12.623Z,3.00
2022-10-18T05:33:12.731Z,2.00
2022-10-18T05:34:12.655Z,2.00
2022-10-18T05:35:12.715Z,3.00
2022-10-18T05:36:12.683Z,3.00
2022-10-18T05:37:12.693Z,4.00
2022-10-18T05:38:12.765Z,4.00
2022-10-18T05:39:12.720Z,5.00
2022-10-18T05:40:12.717Z,5.00
2022-10-18T05:41:12.766Z,7.00
2022-10-18T05:42:12.735Z,7.00
2022-10-18T05:43:12.764Z,9.00
2022-10-18T05:44:12.876Z,10.00
2022-10-18T05:45:12.820Z,11.00
2022-10-18T05:46:15.437Z,12.00
2022-10-18T05:47:12.867Z,15.00
2022-10-18T05:48:12.881Z,16.00
2022-10-18T05:49:12.908Z,19.00
2022-10-18T05:50:12.919Z,21.00
2022-10-18T05:51:12.977Z,23.00
2022-10-18T05:52:12.971Z,25.00
2022-10-18T05:53:35.097Z,27.00
2022-10-18T05:54:12.967Z,29.00
2022-10-18T05:55:12.984Z,31.00
2022-10-18T05:56:12.948Z,32.00
2022-10-18T05:57:13.006Z,34.00
2022-10-18T05:58:12.965Z,36.00
2022-10-18T05:59:12.980Z,38.00
2022-10-18T06:00:13.022Z,40.00
2022-10-18T06:01:13.000Z,42.00
2022-10-18T06:02:13.057Z,44.00
2022-10-18T06:03:12.988Z,46.00
2022-10-18T06:04:13.002Z,49.00
2022-10-18T06:05:13.037Z,52.00
2022-10-18T06:06:13.031Z,55.00
2022-10-18T06:07:13.055Z,56.00
2022-10-18T06:08:13.062Z,60.00
2022-10-18T06:09:13.131Z,62.00
2022-10-18T06:10:13.129Z,64.00
2022-10-18T06:11:13.105Z,67.00
2022-10-18T06:12:13.118Z,68.00
2022-10-18T06:13:13.144Z,70.00
2022-10-18T06:14:13.175Z,72.00
2022-10-18T06:15:13.224Z,74.00
2022-10-18T06:16:13.292Z,77.00
2022-10-18T06:17:13.195Z,78.00
2022-10-18T06:18:13.211Z,80.00
2022-10-18T06:19:13.247Z,82.00
2022-10-18T06:20:13.314Z,84.00
2022-10-18T06:21:13.309Z,85.00
2022-10-18T06:22:13.335Z,85.00
2022-10-18T06:23:13.346Z,88.00
2022-10-18T06:24:13.352Z,90.00
2022-10-18T06:25:13.356Z,93.00
2022-10-18T06:26:13.423Z,96.00
2022-10-18T06:27:13.394Z,100.00
2022-10-18T06:28:13.369Z,105.00
2022-10-18T06:29:13.461Z,106.00
2022-10-18T06:30:13.422Z,110.00
2022-10-18T06:31:13.474Z,114.00
2022-10-18T06:32:13.447Z,117.00
2022-10-18T06:33:13.477Z,121.00
2022-10-18T06:34:13.786Z,125.00
2022-10-18T06:35:13.484Z,129.00
2022-10-18T06:36:13.522Z,131.00
2022-10-18T06:37:13.544Z,134.00
2022-10-18T06:38:13.576Z,136.00
2022-10-18T06:39:13.603Z,139.00
2022-10-18T06:40:13.616Z,144.00
2022-10-18T06:41:13.604Z,152.00
2022-10-18T06:42:13.661Z,155.00
2022-10-18T06:43:20.933Z,163.00
2022-10-18T06:44:13.698Z,167.00
2022-10-18T06:45:13.700Z,171.00
2022-10-18T06:46:13.699Z,174.00
2022-10-18T06:47:13.712Z,179.00
2022-10-18T06:48:13.822Z,183.00
2022-10-18T06:49:15.331Z,186.00
2022-10-18T06:50:13.729Z,192.00
2022-10-18T06:51:13.690Z,197.00
2022-10-18T06:52:13.742Z,205.00
2022-10-18T06:53:13.785Z,210.00
2022-10-18T06:54:18.131Z,215.00
2022-10-18T06:55:13.776Z,218.00
2022-10-18T06:56:13.797Z,219.00
2022-10-18T06:57:13.842Z,221.00
2022-10-18T06:58:13.907Z,224.00
2022-10-18T06:59:13.879Z,226.00
2022-10-18T07:00:13.855Z,361.00
2022-10-18T07:01:13.923Z,395.00
2022-10-18T07:02:13.869Z,407.00
2022-10-18T07:03:13.890Z,414.00
2022-10-18T07:04:13.880Z,416.00
2022-10-18T07:05:13.888Z,420.00
2022-10-18T07:06:13.917Z,426.00
2022-10-18T07:07:13.984Z,431.00
2022-10-18T07:08:14.097Z,433.00
2022-10-18T07:09:13.915Z,434.00
2022-10-18T07:10:13.944Z,433.00
2022-10-18T07:11:13.911Z,431.00
2022-10-18T07:12:13.935Z,434.00
2022-10-18T07:13:31.416Z,434.00
2022-10-18T07:14:16.498Z,427.00
2022-10-18T07:15:13.976Z,431.00
2022-10-18T07:16:17.296Z,429.00
2022-10-18T07:17:14.022Z,417.00
2022-10-18T07:18:14.055Z,418.00
2022-10-18T07:19:14.133Z,432.00
2022-10-18T07:20:14.115Z,442.00
2022-10-18T07:21:14.165Z,447.00
2022-10-18T07:22:14.136Z,450.00
2022-10-18T07:23:14.163Z,453.00
2022-10-18T07:24:14.173Z,451.00
2022-10-18T07:25:14.214Z,462.00
2022-10-18T07:26:14.198Z,472.00
2022-10-18T07:27:14.209Z,473.00
2022-10-18T07:28:14.215Z,471.00
2022-10-18T07:29:14.241Z,475.00
2022-10-18T07:30:14.463Z,484.00
2022-10-18T07:31:14.288Z,485.00
2022-10-18T07:32:14.274Z,455.00
2022-10-18T07:33:14.274Z,436.00
2022-10-18T07:34:14.369Z,434.00
2022-10-18T07:35:14.915Z,435.00
2022-10-18T07:36:14.300Z,444.00
2022-10-18T07:37:14.366Z,449.00
2022-10-18T07:38:14.331Z,446.00
2022-10-18T07:39:14.426Z,260.00
2022-10-18T07:40:14.385Z,258.00
2022-10-18T07:41:14.375Z,246.00
2022-10-18T07:42:14.406Z,242.00
2022-10-18T07:43:14.431Z,234.00
2022-10-18T07:44:14.496Z,219.00
2022-10-18T07:45:14.967Z,213.00
2022-10-18T07:46:14.467Z,209.00
2022-10-18T07:47:14.419Z,193.00
2022-10-18T07:48:14.448Z,189.00
2022-10-18T07:49:14.464Z,177.00
2022-10-18T07:50:14.488Z,175.00
2022-10-18T07:51:14.498Z,198.00
2022-10-18T07:52:14.526Z,236.00
2022-10-18T07:53:14.500Z,274.00
2022-10-18T07:54:14.541Z,302.00
2022-10-18T07:55:14.581Z,293.00
2022-10-18T07:56:14.563Z,278.00
2022-10-18T07:57:14.571Z,271.00
2022-10-18T07:58:14.541Z,258.00
2022-10-18T07:59:14.566Z,252.00
2022-10-18T08:00:14.597Z,282.00
2022-10-18T08:01:14.716Z,333.00
2022-10-18T08:02:14.682Z,383.00
2022-10-18T08:03:14.655Z,418.00
2022-10-18T08:04:16.510Z,449.00
2022-10-18T08:05:14.704Z,486.00
2022-10-18T08:06:14.760Z,485.00
2022-10-18T08:07:14.761Z,504.00
2022-10-18T08:08:14.796Z,506.00
2022-10-18T08:09:14.792Z,493.00
2022-10-18T08:10:14.845Z,497.00
2022-10-18T08:11:14.825Z,489.00
2022-10-18T08:12:14.881Z,474.00
2022-10-18T08:13:14.857Z,466.00
2022-10-18T08:14:14.888Z,460.00
2022-10-18T08:15:14.885Z,444.00
2022-10-18T08:16:14.872Z,425.00
2022-10-18T08:17:14.897Z,434.00
2022-10-18T08:18:14.926Z,446.00
2022-10-18T08:19:14.889Z,430.00
2022-10-18T08:20:30.038Z,452.00
2022-10-18T08:21:14.960Z,497.00
2022-10-18T08:22:14.983Z,495.00
2022-10-18T08:23:14.972Z,470.00
2022-10-18T08:24:14.945Z,462.00
2022-10-18T08:25:14.989Z,448.00
2022-10-18T08:26:15.059Z,437.00
2022-10-18T08:27:15.026Z,433.00
2022-10-18T08:28:15.006Z,435.00
2022-10-18T08:29:23.222Z,393.00
2022-10-18T08:30:15.102Z,373.00
2022-10-18T08:31:15.092Z,363.00
2022-10-18T08:32:15.129Z,331.00
2022-10-18T08:33:15.151Z,289.00
2022-10-18T08:34:19.507Z,260.00
2022-10-18T08:35:15.168Z,232.00
2022-10-18T08:36:15.207Z,218.00
2022-10-18T08:37:15.177Z,210.00
2022-10-18T08:38:18.181Z,206.00
2022-10-18T08:39:15.253Z,211.00
2022-10-18T08:40:15.221Z,229.00
2022-10-18T08:41:15.241Z,247.00
2022-10-18T08:42:15.272Z,240.00
2022-10-18T08:43:20.718Z,223.00
2022-10-18T08:44:15.274Z,208.00
2022-10-18T08:45:30.246Z,197.00
2022-10-18T08:46:15.330Z,186.00
2022-10-18T08:47:15.378Z,178.00
2022-10-18T08:48:15.406Z,175.00
2022-10-18T08:49:15.400Z,182.00
2022-10-18T08:50:15.513Z,200.00
2022-10-18T08:51:15.435Z,227.00
2022-10-18T08:52:15.390Z,252.00
2022-10-18T08:53:15.480Z,256.00
2022-10-18T08:54:15.399Z,244.00
2022-10-18T08:55:15.458Z,257.00
2022-10-18T08:56:15.481Z,239.00
2022-10-18T08:57:16.450Z,204.00
2022-10-18T08:58:15.487Z,162.00
2022-10-18T08:59:15.526Z,131.00
2022-10-18T09:00:15.541Z,129.00
2022-10-18T09:01:15.591Z,169.00
2022-10-18T09:02:15.639Z,197.00
2022-10-18T09:03:15.676Z,195.00
2022-10-18T09:04:15.635Z,182.00
2022-10-18T09:05:15.637Z,163.00
2022-10-18T09:06:18.668Z,135.00
2022-10-18T09:07:15.699Z,147.00
2022-10-18T09:08:15.734Z,164.00
2022-10-18T09:09:15.668Z,156.00
2022-10-18T09:10:15.798Z,143.00
2022-10-18T09:11:15.674Z,135.00
2022-10-18T09:12:15.749Z,128.00
2022-10-18T09:13:15.696Z,122.00
2022-10-18T09:14:15.752Z,121.00
2022-10-18T09:15:15.750Z,120.00
2022-10-18T09:16:15.705Z,120.00
2022-10-18T09:17:16.266Z,123.00
2022-10-18T09:18:15.731Z,126.00
2022-10-18T09:19:15.799Z,130.00
2022-10-18T09:20:15.799Z,134.00
2022-10-18T09:21:15.787Z,139.00
2022-10-18T09:22:15.840Z,144.00
2022-10-18T09:23:15.885Z,151.00
2022-10-18T09:24:15.844Z,162.00
2022-10-18T09:25:15.868Z,177.00
2022-10-18T09:26:15.853Z,195.00
2022-10-18T09:27:15.889Z,216.00
2022-10-18T09:28:15.904Z,243.00
2022-10-18T09:29:16.061Z,276.00
2022-10-18T09:30:15.922Z,312.00
2022-10-18T09:31:15.940Z,350.00
2022-10-18T09:32:15.980Z,386.00
2022-10-18T09:33:16.002Z,413.00
2022-10-18T09:34:16.120Z,436.00
2022-10-18T09:35:16.052Z,453.00
2022-10-18T09:36:16.021Z,465.00
2022-10-18T09:37:16.033Z,469.00
2022-10-18T09:38:16.153Z,473.00
2022-10-18T09:39:16.008Z,470.00
2022-10-18T09:40:18.861Z,475.00
2022-10-18T09:41:16.026Z,493.00
2022-10-18T09:42:16.094Z,523.00
2022-10-18T09:43:16.064Z,560.00
2022-10-18T09:44:16.052Z,578.00
2022-10-18T09:45:16.098Z,584.00
2022-10-18T09:46:16.108Z,602.00
2022-10-18T09:47:17.068Z,592.00
2022-10-18T09:48:16.182Z,570.00
2022-10-18T09:49:16.470Z,579.00
2022-10-18T09:50:16.212Z,576.00
2022-10-18T09:51:16.188Z,622.00
2022-10-18T09:52:16.195Z,624.00
2022-10-18T09:53:16.222Z,570.00
2022-10-18T09:54:16.231Z,546.00
2022-10-18T09:55:16.221Z,534.00
2022-10-18T09:56:16.241Z,529.00
2022-10-18T09:57:16.260Z,524.00
2022-10-18T09:58:16.242Z,528.00
2022-10-18T09:59:16.243Z,555.00
2022-10-18T10:00:16.257Z,574.00
2022-10-18T10:01:16.258Z,568.00
2022-10-18T10:02:16.426Z,549.00
2022-10-18T10:03:16.255Z,547.00
2022-10-18T10:04:16.253Z,588.00
2022-10-18T10:05:16.272Z,622.00
2022-10-18T10:06:16.309Z,641.00
2022-10-18T10:07:16.322Z,681.00
2022-10-18T10:08:16.321Z,688.00
2022-10-18T10:09:16.355Z,649.00
2022-10-18T10:10:16.428Z,576.00
2022-10-18T10:11:16.405Z,485.00
2022-10-18T10:12:16.582Z,444.00
2022-10-18T10:13:16.422Z,440.00
2022-10-18T10:15:16.433Z,459.00
2022-10-18T10:16:16.445Z,472.00
2022-10-18T10:17:17.074Z,483.00
2022-10-18T10:18:16.519Z,494.00
2022-10-18T10:19:16.447Z,623.00
2022-10-18T10:20:16.471Z,645.00
2022-10-18T10:21:16.501Z,608.00
2022-10-18T10:22:16.518Z,585.00
2022-10-18T10:23:16.536Z,551.00
2022-10-18T10:24:16.588Z,536.00
2022-10-18T10:25:16.550Z,535.00
2022-10-18T10:26:16.585Z,547.00
2022-10-18T10:27:16.600Z,558.00
2022-10-18T10:28:16.572Z,543.00
2022-10-18T10:29:17.717Z,525.00
2022-10-18T10:30:16.597Z,516.00
2022-10-18T10:31:16.610Z,525.00
2022-10-18T10:32:16.688Z,367.00
2022-10-18T10:33:16.603Z,412.00
2022-10-18T10:34:16.608Z,442.00
2022-10-18T10:35:22.799Z,455.00
2022-10-18T10:36:16.952Z,442.00
2022-10-18T10:37:16.649Z,470.00
2022-10-18T10:38:16.685Z,490.00
2022-10-18T10:39:16.650Z,670.00
2022-10-18T10:40:19.292Z,530.00
2022-10-18T10:41:16.780Z,517.00
2022-10-18T10:42:16.684Z,503.00
2022-10-18T10:43:33.090Z,519.00
2022-10-18T10:44:16.855Z,527.00
2022-10-18T10:45:16.777Z,540.00
2022-10-18T10:46:16.797Z,578.00
2022-10-18T10:47:16.750Z,618.00
2022-10-18T10:48:16.765Z,627.00
2022-10-18T10:49:38.457Z,626.00
2022-10-18T10:50:16.828Z,628.00
2022-10-18T10:51:16.848Z,647.00
2022-10-18T10:52:26.927Z,673.00
2022-10-18T10:53:16.917Z,703.00
2022-10-18T10:54:16.929Z,718.00
2022-10-18T10:55:34.235Z,724.00
2022-10-18T10:56:17.005Z,735.00
2022-10-18T10:57:16.953Z,739.00
2022-10-18T10:58:17.000Z,743.00
2022-10-18T10:59:17.012Z,741.00
2022-10-18T11:00:17.114Z,734.00
2022-10-18T11:01:17.020Z,734.00
2022-10-18T11:02:17.077Z,741.00
2022-10-18T11:03:27.801Z,751.00
2022-10-18T11:04:17.159Z,763.00
2022-10-18T11:05:17.344Z,775.00
2022-10-18T11:06:17.088Z,770.00
2022-10-18T11:07:17.134Z,765.00
2022-10-18T11:08:20.492Z,757.00
2022-10-18T11:09:17.144Z,763.00
2022-10-18T11:10:17.104Z,761.00
2022-10-18T11:11:19.357Z,757.00
2022-10-18T11:12:17.121Z,757.00
2022-10-18T11:13:17.156Z,749.00
2022-10-18T11:14:26.130Z,733.00
2022-10-18T11:15:17.185Z,722.00
2022-10-18T11:16:17.202Z,649.00
2022-10-18T11:17:17.226Z,642.00
2022-10-18T11:18:17.411Z,643.00
2022-10-18T11:19:17.243Z,667.00
2022-10-18T11:20:17.239Z,659.00
2022-10-18T11:21:17.259Z,693.00
2022-10-18T11:22:17.262Z,698.00
2022-10-18T11:23:17.275Z,708.00
2022-10-18T11:24:17.296Z,716.00
2022-10-18T11:25:17.316Z,718.00
2022-10-18T11:26:17.407Z,716.00
2022-10-18T11:27:17.384Z,720.00
2022-10-18T11:28:17.423Z,714.00
2022-10-18T11:29:17.386Z,717.00
2022-10-18T11:30:17.451Z,720.00
2022-10-18T11:31:17.383Z,723.00
2022-10-18T11:32:17.397Z,723.00
2022-10-18T11:33:17.413Z,713.00
2022-10-18T11:34:17.443Z,715.00
2022-10-18T11:35:17.447Z,715.00
2022-10-18T11:36:17.503Z,716.00
2022-10-18T11:37:28.204Z,716.00
2022-10-18T11:38:17.540Z,716.00
2022-10-18T11:39:17.524Z,729.00
2022-10-18T11:40:17.513Z,710.00
2022-10-18T11:41:17.549Z,709.00
2022-10-18T11:42:17.556Z,736.00
2022-10-18T11:43:17.590Z,744.00
2022-10-18T11:44:17.612Z,720.00
2022-10-18T11:45:17.623Z,720.00
2022-10-18T11:46:17.647Z,714.00
2022-10-18T11:47:17.619Z,681.00
2022-10-18T11:48:17.638Z,681.00
2022-10-18T11:49:18.519Z,649.00
2022-10-18T11:50:17.680Z,600.00
2022-10-18T11:51:17.695Z,553.00
2022-10-18T11:52:17.670Z,540.00
2022-10-18T11:53:17.674Z,527.00
2022-10-18T11:54:17.667Z,500.00
2022-10-18T11:55:17.717Z,484.00
2022-10-18T11:56:17.720Z,463.00
2022-10-18T11:57:17.889Z,471.00
2022-10-18T11:58:17.718Z,517.00
2022-10-18T11:59:18.040Z,512.00
2022-10-18T12:00:17.874Z,522.00
2022-10-18T12:01:17.750Z,525.00
2022-10-18T12:02:17.826Z,530.00
2022-10-18T12:03:18.611Z,523.00
2022-10-18T12:04:17.814Z,505.00
2022-10-18T12:05:23.655Z,496.00
2022-10-18T12:06:17.835Z,481.00
2022-10-18T12:07:21.159Z,516.00
2022-10-18T12:08:17.831Z,571.00
2022-10-18T12:09:17.833Z,731.00
2022-10-18T12:10:26.188Z,653.00
2022-10-18T12:11:17.874Z,767.00
2022-10-18T12:12:17.852Z,607.00
2022-10-18T12:13:17.887Z,558.00
2022-10-18T12:14:17.905Z,496.00
2022-10-18T12:15:17.894Z,417.00
2022-10-18T12:16:17.931Z,418.00
2022-10-18T12:17:41.092Z,373.00
2022-10-18T12:18:17.973Z,346.00
2022-10-18T12:19:20.811Z,357.00
2022-10-18T12:20:17.997Z,372.00
2022-10-18T12:21:21.858Z,340.00
2022-10-18T12:22:18.003Z,324.00
2022-10-18T12:23:18.028Z,360.00
2022-10-18T12:24:18.603Z,332.00
2022-10-18T12:25:17.990Z,311.00
2022-10-18T12:26:18.018Z,294.00
2022-10-18T12:27:17.979Z,283.00
2022-10-18T12:28:18.008Z,273.00
2022-10-18T12:29:18.032Z,274.00
2022-10-18T12:30:18.047Z,276.00
2022-10-18T12:31:18.084Z,278.00
2022-10-18T12:32:18.075Z,286.00
2022-10-18T12:33:29.004Z,303.00
2022-10-18T12:34:18.116Z,305.00
2022-10-18T12:35:18.070Z,286.00
2022-10-18T12:36:18.152Z,322.00
2022-10-18T12:37:18.107Z,354.00
2022-10-18T12:38:18.163Z,472.00
2022-10-18T12:39:27.290Z,598.00
2022-10-18T12:40:21.161Z,668.00
2022-10-18T12:41:18.159Z,753.00
2022-10-18T12:42:18.176Z,777.00
2022-10-18T12:43:18.226Z,821.00
2022-10-18T12:44:18.234Z,807.00
2022-10-18T12:45:18.276Z,692.00
2022-10-18T12:46:18.293Z,523.00
2022-10-18T12:47:18.282Z,426.00
2022-10-18T12:48:18.285Z,369.00
2022-10-18T12:49:18.287Z,318.00
2022-10-18T12:50:18.392Z,292.00
2022-10-18T12:51:18.370Z,268.00
2022-10-18T12:52:19.654Z,254.00
2022-10-18T12:53:18.400Z,235.00
2022-10-18T12:54:18.440Z,228.00
2022-10-18T12:55:18.453Z,231.00